createdAt,value
2023-04-12T00:00:58.582Z,9.60
2023-04-12T00:03:27.644Z,9.70
2023-04-12T00:05:55.778Z,9.70
2023-04-12T00:08:33.564Z,9.70
2023-04-12T00:11:03.778Z,9.70
2023-04-12T00:13:32.256Z,9.70
2023-04-12T00:16:00.350Z,9.70
2023-04-12T00:18:28.302Z,9.70
2023-04-12T00:20:56.528Z,9.70
2023-04-12T00:23:24.570Z,9.70
2023-04-12T00:25:52.555Z,9.70
2023-04-12T00:28:21.820Z,9.70
2023-04-12T00:30:51.091Z,9.60
2023-04-12T00:33:18.999Z,9.70
2023-04-12T00:35:46.939Z,9.60
2023-04-12T00:38:17.325Z,9.60
2023-04-12T00:40:45.885Z,9.50
2023-04-12T00:43:15.663Z,9.50
2023-04-12T00:45:45.343Z,9.50
2023-04-12T00:48:13.563Z,9.30
2023-04-12T00:50:44.652Z,9.20
2023-04-12T00:53:13.462Z,9.20
2023-04-12T00:55:42.630Z,9.10
2023-04-12T00:58:10.725Z,9.00
2023-04-12T01:00:38.756Z,9.00
2023-04-12T01:03:08.853Z,8.90
2023-04-12T01:05:44.284Z,8.90
2023-04-12T01:08:20.418Z,8.90
2023-04-12T01:10:57.834Z,8.90
2023-04-12T01:13:33.699Z,8.90
2023-04-12T01:16:12.706Z,8.90
2023-04-12T01:18:45.915Z,8.80
2023-04-12T01:21:18.048Z,8.80
2023-04-12T01:24:04.628Z,8.80
2023-04-12T01:26:37.515Z,8.70
2023-04-12T01:29:11.209Z,8.70
2023-04-12T01:31:42.029Z,8.60
2023-04-12T01:34:12.516Z,8.60
2023-04-12T01:36:42.071Z,8.60
2023-04-12T01:39:11.407Z,8.50
2023-04-12T01:41:45.298Z,8.50
2023-04-12T01:44:16.323Z,8.40
2023-04-12T01:46:46.754Z,8.40
2023-04-12T01:49:16.680Z,8.40
2023-04-12T01:51:51.929Z,8.40
2023-04-12T01:54:23.734Z,8.40
2023-04-12T01:56:58.741Z,8.50
2023-04-12T01:59:33.150Z,8.40
2023-04-12T02:02:01.158Z,8.40
2023-04-12T02:04:29.841Z,8.40
2023-04-12T02:06:58.247Z,8.30
2023-04-12T02:09:26.157Z,8.30
2023-04-12T02:11:54.254Z,8.20
2023-04-12T02:14:22.209Z,8.20
2023-04-12T02:16:54.861Z,8.20
2023-04-12T02:19:23.078Z,8.20
2023-04-12T02:21:51.350Z,8.20
2023-04-12T02:24:19.253Z,8.20
2023-04-12T02:26:49.612Z,8.20
2023-04-12T02:29:17.621Z,8.20
2023-04-12T02:31:48.296Z,8.30
2023-04-12T02:34:18.949Z,8.30
2023-04-12T02:36:52.379Z,8.30
2023-04-12T02:39:22.195Z,8.40
2023-04-12T02:41:52.235Z,8.40
2023-04-12T02:44:20.242Z,8.30
2023-04-12T02:47:02.205Z,8.30
2023-04-12T02:49:34.159Z,8.30
2023-04-12T02:52:03.347Z,8.30
2023-04-12T02:54:39.765Z,8.30
2023-04-12T02:57:12.589Z,8.30
2023-04-12T02:59:44.736Z,8.30
2023-04-12T03:02:20.732Z,8.30
2023-04-12T03:04:51.734Z,8.30
2023-04-12T03:07:24.887Z,8.20
2023-04-12T03:09:55.390Z,8.20
2023-04-12T03:12:25.601Z,8.20
2023-04-12T03:15:14.434Z,8.20
2023-04-12T03:17:46.690Z,8.20
2023-04-12T03:20:17.821Z,8.20
2023-04-12T03:22:55.965Z,8.20
2023-04-12T03:25:23.949Z,8.20
2023-04-12T03:27:57.357Z,8.20
2023-04-12T03:30:34.422Z,8.30
2023-04-12T03:33:02.581Z,8.30
2023-04-12T03:35:32.500Z,8.30
2023-04-12T03:38:01.290Z,8.30
2023-04-12T03:40:29.446Z,8.30
2023-04-12T03:43:01.892Z,8.30
2023-04-12T03:45:31.153Z,8.30
2023-04-12T03:48:02.194Z,8.30
2023-04-12T03:50:44.061Z,8.40
2023-04-12T03:53:16.658Z,8.40
2023-04-12T03:55:47.263Z,8.40
2023-04-12T03:58:16.364Z,8.30
2023-04-12T04:00:46.693Z,8.40
2023-04-12T04:03:15.949Z,8.40
2023-04-12T04:05:56.988Z,8.40
2023-04-12T04:08:25.007Z,8.30
2023-04-12T04:10:54.274Z,8.30
2023-04-12T04:13:27.147Z,8.30
2023-04-12T04:16:04.270Z,8.30
2023-04-12T04:18:32.682Z,8.30
2023-04-12T04:21:03.204Z,8.30
2023-04-12T04:23:38.555Z,8.30
2023-04-12T04:26:10.422Z,8.30
2023-04-12T04:28:45.547Z,8.20
2023-04-12T04:31:18.244Z,8.20
2023-04-12T04:33:50.834Z,8.20
2023-04-12T04:36:21.895Z,8.20
2023-04-12T04:38:54.420Z,8.20
2023-04-12T04:41:39.356Z,8.10
2023-04-12T04:44:10.386Z,8.10
2023-04-12T04:46:43.666Z,8.20
2023-04-12T04:49:11.988Z,8.10
2023-04-12T04:51:41.250Z,8.10
2023-04-12T04:54:13.771Z,8.10
2023-04-12T04:56:43.319Z,8.10
2023-04-12T04:59:13.766Z,8.10
2023-04-12T05:01:43.219Z,8.10
2023-04-12T05:04:11.419Z,8.20
2023-04-12T05:06:40.792Z,8.20
2023-04-12T05:09:10.938Z,8.20
2023-04-12T05:11:45.231Z,8.20
2023-04-12T05:14:14.297Z,8.20
2023-04-12T05:16:42.355Z,8.20
2023-04-12T05:19:10.411Z,8.20
2023-04-12T05:21:38.566Z,8.20
2023-04-12T05:24:08.712Z,8.20
2023-04-12T05:26:38.640Z,8.20
2023-04-12T05:29:12.587Z,8.30
2023-04-12T05:31:41.240Z,8.30
2023-04-12T05:34:15.997Z,8.40
2023-04-12T05:36:52.399Z,8.30
2023-04-12T05:39:22.339Z,8.20
2023-04-12T05:41:52.182Z,8.30
2023-04-12T05:44:20.403Z,8.30
2023-04-12T05:46:48.512Z,8.30
2023-04-12T05:49:17.706Z,8.30
2023-04-12T05:51:45.807Z,8.30
2023-04-12T05:54:22.730Z,8.30
2023-04-12T05:56:54.189Z,8.30
2023-04-12T05:59:22.394Z,8.30
2023-04-12T06:01:50.993Z,8.30
2023-04-12T06:04:21.164Z,8.30
2023-04-12T06:06:49.975Z,8.30
2023-04-12T06:09:17.921Z,8.40
2023-04-12T06:11:47.491Z,8.40
2023-04-12T06:14:15.431Z,8.40
2023-04-12T06:16:45.538Z,8.50
2023-04-12T06:19:14.887Z,8.50
2023-04-12T06:21:42.891Z,8.50
2023-04-12T06:24:10.989Z,8.50
2023-04-12T06:26:43.123Z,8.50
2023-04-12T06:29:12.857Z,8.50
2023-04-12T06:31:41.675Z,8.60
2023-04-12T06:34:09.795Z,8.60
2023-04-12T06:36:41.474Z,8.60
2023-04-12T06:39:12.001Z,8.70
2023-04-12T06:41:40.251Z,8.70
2023-04-12T06:44:08.294Z,8.70
2023-04-12T06:46:37.690Z,8.80
2023-04-12T06:49:05.798Z,8.80
2023-04-12T06:51:34.586Z,8.80
2023-04-12T06:54:02.572Z,8.80
2023-04-12T06:56:30.618Z,8.80
2023-04-12T06:58:58.946Z,8.90
2023-04-12T07:01:27.375Z,8.90
2023-04-12T07:03:57.040Z,8.90
2023-04-12T07:06:26.266Z,8.90
2023-04-12T07:08:55.011Z,9.00
2023-04-12T07:11:23.814Z,9.00
2023-04-12T07:13:52.226Z,9.10
2023-04-12T07:16:20.245Z,9.10
2023-04-12T07:18:48.691Z,9.10
2023-04-12T07:21:18.551Z,9.10
2023-04-12T07:23:51.045Z,9.20
2023-04-12T07:26:19.715Z,9.20
2023-04-12T07:28:47.767Z,9.20
2023-04-12T07:31:15.833Z,9.30
2023-04-12T07:33:44.044Z,9.30
2023-04-12T07:36:13.022Z,9.40
2023-04-12T07:38:42.415Z,9.40
2023-04-12T07:41:10.972Z,9.40
2023-04-12T07:43:38.970Z,9.40
2023-04-12T07:46:08.768Z,9.40
2023-04-12T07:48:36.903Z,9.40
2023-04-12T07:51:05.883Z,9.50
2023-04-12T07:53:33.908Z,9.50
2023-04-12T07:56:05.006Z,9.50
2023-04-12T07:58:34.516Z,9.50
2023-04-12T08:01:02.523Z,9.60
2023-04-12T08:03:30.655Z,9.70
2023-04-12T08:05:58.667Z,9.80
2023-04-12T08:08:27.036Z,9.80
2023-04-12T08:10:54.990Z,9.90
2023-04-12T08:13:24.251Z,9.90
2023-04-12T08:15:52.555Z,10.00
2023-04-12T08:18:21.046Z,10.00
2023-04-12T08:20:49.297Z,10.00
2023-04-12T08:23:17.671Z,10.00
2023-04-12T08:25:45.604Z,10.00
2023-04-12T08:28:13.752Z,10.00
2023-04-12T08:30:44.245Z,10.00
2023-04-12T08:33:12.174Z,10.00
2023-04-12T08:35:41.044Z,10.00
2023-04-12T08:38:09.106Z,10.00
2023-04-12T08:40:37.188Z,10.00
2023-04-12T08:43:09.150Z,10.00
2023-04-12T08:45:37.768Z,10.00
2023-04-12T08:48:07.336Z,10.10
2023-04-12T08:50:35.628Z,10.10
2023-04-12T08:53:04.108Z,10.10
2023-04-12T08:55:32.066Z,10.20
2023-04-12T08:58:00.770Z,10.20
2023-04-12T09:00:28.876Z,10.20
2023-04-12T09:02:57.054Z,10.20
2023-04-12T09:05:31.032Z,10.30
2023-04-12T09:07:59.597Z,10.40
2023-04-12T09:10:36.621Z,10.40
2023-04-12T09:13:05.093Z,10.40
2023-04-12T09:15:34.039Z,10.50
2023-04-12T09:18:08.253Z,10.50
2023-04-12T09:20:38.752Z,10.50
2023-04-12T09:23:19.770Z,10.50
2023-04-12T09:25:51.777Z,10.60
2023-04-12T09:28:25.751Z,10.70
2023-04-12T09:30:54.565Z,10.80
2023-04-12T09:33:24.736Z,10.90
2023-04-12T09:36:01.692Z,11.10
2023-04-12T09:38:29.945Z,11.20
2023-04-12T09:40:58.265Z,11.30
2023-04-12T09:43:38.798Z,11.40
2023-04-12T09:46:13.365Z,11.40
2023-04-12T09:48:42.395Z,11.50
2023-04-12T09:51:12.860Z,11.60
2023-04-12T09:53:44.584Z,11.60
2023-04-12T09:56:13.463Z,11.60
2023-04-12T09:58:42.192Z,11.70
2023-04-12T10:01:11.704Z,11.80
2023-04-12T10:03:39.839Z,11.90
2023-04-12T10:06:10.016Z,11.90
2023-04-12T10:08:40.453Z,11.90
2023-04-12T10:11:09.221Z,12.00
2023-04-12T10:13:40.606Z,12.10
2023-04-12T10:16:11.141Z,12.20
2023-04-12T10:18:40.032Z,12.30
2023-04-12T10:21:09.230Z,12.50
2023-04-12T10:23:37.228Z,12.60
2023-04-12T10:26:07.436Z,12.70
2023-04-12T10:28:37.009Z,12.70
2023-04-12T10:31:30.130Z,12.70
2023-04-12T10:33:58.421Z,12.80
2023-04-12T10:36:51.981Z,13.00
2023-04-12T10:39:35.301Z,13.00
2023-04-12T10:42:25.320Z,13.00
2023-04-12T10:44:55.135Z,13.00
2023-04-12T10:48:01.689Z,13.20
2023-04-12T10:50:31.190Z,13.50
2023-04-12T10:53:26.723Z,13.60
2023-04-12T10:55:54.992Z,13.50
2023-04-12T10:59:00.803Z,13.60
2023-04-12T11:01:35.228Z,13.80
2023-04-12T11:04:14.291Z,13.90
2023-04-12T11:07:02.727Z,14.00
2023-04-12T11:09:51.048Z,14.00
2023-04-12T11:12:30.656Z,14.00
2023-04-12T11:15:06.195Z,14.00
2023-04-12T11:17:55.243Z,13.90
2023-04-12T11:20:23.394Z,14.00
2023-04-12T11:22:52.055Z,14.10
2023-04-12T11:25:20.068Z,13.90
2023-04-12T11:27:52.222Z,14.00
2023-04-12T11:30:23.505Z,14.10
2023-04-12T11:32:51.556Z,14.20
2023-04-12T11:35:24.269Z,14.30
2023-04-12T11:37:52.362Z,14.30
2023-04-12T11:40:23.367Z,14.30
2023-04-12T11:42:51.358Z,14.00
2023-04-12T11:45:22.330Z,14.10
2023-04-12T11:47:52.148Z,14.30
2023-04-12T11:50:30.959Z,14.40
2023-04-12T11:53:12.010Z,14.70
2023-04-12T11:55:40.115Z,15.10
2023-04-12T11:58:08.699Z,15.00
2023-04-12T12:00:38.576Z,14.70
2023-04-12T12:03:08.282Z,14.70
2023-04-12T12:05:39.070Z,14.60
2023-04-12T12:08:08.359Z,14.70
2023-04-12T12:10:46.938Z,14.90
2023-04-12T12:13:25.331Z,15.10
2023-04-12T12:15:54.677Z,15.00
2023-04-12T12:18:27.258Z,15.20
2023-04-12T12:20:55.722Z,15.00
2023-04-12T12:23:31.718Z,15.10
2023-04-12T12:26:14.417Z,15.40
2023-04-12T12:28:51.341Z,15.70
2023-04-12T12:31:23.050Z,15.70
2023-04-12T12:33:55.169Z,15.80
2023-04-12T12:36:32.112Z,15.80
2023-04-12T12:39:06.846Z,15.70
2023-04-12T12:41:36.526Z,15.50
2023-04-12T12:44:04.582Z,15.80
2023-04-12T12:49:05.102Z,16.70
2023-04-12T12:51:33.059Z,16.90
2023-04-12T12:54:01.194Z,17.30
2023-04-12T12:56:29.159Z,17.10
2023-04-12T12:58:57.306Z,17.50
2023-04-12T13:01:25.512Z,17.20
2023-04-12T13:03:55.122Z,16.70
2023-04-12T13:06:25.732Z,16.20
2023-04-12T13:08:55.080Z,15.90
2023-04-12T13:11:23.164Z,16.00
2023-04-12T13:13:51.072Z,16.20
2023-04-12T13:16:19.057Z,16.30
2023-04-12T13:18:47.200Z,16.80
2023-04-12T13:21:16.428Z,16.70
2023-04-12T13:23:44.526Z,16.60
2023-04-12T13:26:12.494Z,16.30
2023-04-12T13:28:40.390Z,16.10
2023-04-12T13:31:08.416Z,15.60
2023-04-12T13:33:36.609Z,15.20
2023-04-12T13:36:04.801Z,15.00
2023-04-12T13:38:34.126Z,15.10
2023-04-12T13:41:02.051Z,15.20
2023-04-12T13:43:30.083Z,15.50
2023-04-12T13:45:58.051Z,16.00
2023-04-12T13:48:26.332Z,16.50
2023-04-12T13:50:55.539Z,17.00
2023-04-12T13:53:23.659Z,17.00
2023-04-12T13:55:52.985Z,16.90
2023-04-12T13:58:21.086Z,16.70
2023-04-12T14:00:49.076Z,16.40
2023-04-12T14:03:17.178Z,16.00
2023-04-12T14:05:45.148Z,16.00
2023-04-12T14:08:13.035Z,15.90
2023-04-12T14:10:40.925Z,15.70
2023-04-12T14:13:10.585Z,15.60
2023-04-12T14:15:38.563Z,15.60
2023-04-12T14:18:06.677Z,15.70
2023-04-12T14:20:34.642Z,16.30
2023-04-12T14:23:02.728Z,16.90
2023-04-12T14:25:31.082Z,17.40
2023-04-12T14:27:59.075Z,17.40
2023-04-12T14:30:28.416Z,17.50
2023-04-12T14:32:56.356Z,17.40
2023-04-12T14:35:24.719Z,17.40
2023-04-12T14:37:52.574Z,17.50
2023-04-12T14:40:20.837Z,17.40
2023-04-12T14:42:48.854Z,16.90
2023-04-12T14:45:17.405Z,16.70
2023-04-12T14:47:46.924Z,16.70
2023-04-12T14:50:15.122Z,16.40
2023-04-12T14:52:43.384Z,16.20
2023-04-12T14:55:11.719Z,16.30
2023-04-12T14:57:39.904Z,16.20
2023-04-12T15:00:13.344Z,16.00
2023-04-12T15:02:41.725Z,16.00
2023-04-12T15:05:11.834Z,16.00
2023-04-12T15:07:39.939Z,15.80
2023-04-12T15:10:09.371Z,15.70
2023-04-12T15:12:37.458Z,15.70
2023-04-12T15:15:06.778Z,15.60
2023-04-12T15:17:35.226Z,15.50
2023-04-12T15:20:08.999Z,14.50
2023-04-12T15:22:38.526Z,13.00
2023-04-12T15:25:07.910Z,12.00
2023-04-12T15:27:35.944Z,11.40
2023-04-12T15:30:05.103Z,10.90
2023-04-12T15:32:36.565Z,10.70
2023-04-12T15:35:12.141Z,10.60
2023-04-12T15:37:52.489Z,10.40
2023-04-12T15:40:22.558Z,10.30
2023-04-12T15:42:50.664Z,10.30
2023-04-12T15:45:18.574Z,10.30
2023-04-12T15:47:46.975Z,10.30
2023-04-12T15:50:14.951Z,10.20
2023-04-12T15:52:44.260Z,10.20
2023-04-12T15:55:17.103Z,10.20
2023-04-12T15:57:45.195Z,10.40
2023-04-12T16:00:22.015Z,10.50
2023-04-12T16:02:53.669Z,10.70
2023-04-12T16:05:22.326Z,10.90
2023-04-12T16:07:51.090Z,11.10
2023-04-12T16:10:22.299Z,11.60
2023-04-12T16:12:51.034Z,12.30
2023-04-12T16:15:20.029Z,13.10
2023-04-12T16:17:48.999Z,13.50
2023-04-12T16:20:19.041Z,13.50
2023-04-12T16:22:48.163Z,13.30
2023-04-12T16:25:17.334Z,13.00
2023-04-12T16:27:46.596Z,12.60
2023-04-12T16:30:15.654Z,12.30
2023-04-12T16:32:46.520Z,12.20
2023-04-12T16:35:14.948Z,12.20
2023-04-12T16:37:43.370Z,12.20
2023-04-12T16:40:12.888Z,12.00
2023-04-12T16:42:41.652Z,12.00
2023-04-12T16:45:14.273Z,11.90
2023-04-12T16:47:42.559Z,11.80
2023-04-12T16:50:13.119Z,11.80
2023-04-12T16:52:41.579Z,11.70
2023-04-12T16:55:12.247Z,11.70
2023-04-12T16:57:41.030Z,11.60
2023-04-12T17:00:19.508Z,11.60
2023-04-12T17:02:49.954Z,11.50
2023-04-12T17:05:19.801Z,11.50
2023-04-12T17:07:49.782Z,11.50
2023-04-12T17:10:18.623Z,11.50
2023-04-12T17:12:46.756Z,11.50
2023-04-12T17:15:18.071Z,11.50
2023-04-12T17:17:48.093Z,11.40
2023-04-12T17:20:17.084Z,11.40
2023-04-12T17:22:45.482Z,11.30
2023-04-12T17:25:14.014Z,11.30
2023-04-12T17:27:42.376Z,11.30
2023-04-12T17:30:12.614Z,11.20
2023-04-12T17:32:41.991Z,11.20
2023-04-12T17:35:10.583Z,11.20
2023-04-12T17:37:38.694Z,11.20
2023-04-12T17:40:10.509Z,11.10
2023-04-12T17:42:39.673Z,11.10
2023-04-12T17:45:11.034Z,11.10
2023-04-12T17:47:39.294Z,11.10
2023-04-12T17:50:10.020Z,11.10
2023-04-12T17:52:38.297Z,11.00
2023-04-12T17:55:07.420Z,11.00
2023-04-12T17:57:35.697Z,11.00
2023-04-12T18:00:05.264Z,11.00
2023-04-12T18:02:40.726Z,11.00
2023-04-12T18:05:11.310Z,10.90
2023-04-12T18:07:40.132Z,10.90
2023-04-12T18:10:09.939Z,10.80
2023-04-12T18:12:38.795Z,10.80
2023-04-12T18:15:08.406Z,10.80
2023-04-12T18:17:36.485Z,10.80
2023-04-12T18:20:08.224Z,10.70
2023-04-12T18:22:37.814Z,10.70
2023-04-12T18:25:06.485Z,10.60
2023-04-12T18:27:34.359Z,10.60
2023-04-12T18:30:03.361Z,10.60
2023-04-12T18:32:31.565Z,10.50
2023-04-12T18:34:59.546Z,10.50
2023-04-12T18:37:28.343Z,10.40
2023-04-12T18:39:57.960Z,10.40
2023-04-12T18:42:25.922Z,10.40
2023-04-12T18:44:53.924Z,10.40
2023-04-12T18:47:21.861Z,10.30
2023-04-12T18:49:49.726Z,10.30
2023-04-12T18:52:17.674Z,10.20
2023-04-12T18:54:45.671Z,10.20
2023-04-12T18:57:15.640Z,10.20
2023-04-12T18:59:47.713Z,10.10
2023-04-12T19:02:17.950Z,10.10
2023-04-12T19:04:46.184Z,10.00
2023-04-12T19:07:15.307Z,10.00
2023-04-12T19:09:43.257Z,10.00
2023-04-12T19:12:11.226Z,9.90
2023-04-12T19:14:40.574Z,9.90
2023-04-12T19:17:09.424Z,9.90
2023-04-12T19:19:37.424Z,9.90
2023-04-12T19:22:05.587Z,9.90
2023-04-12T19:24:33.809Z,9.90
2023-04-12T19:27:01.861Z,9.90
2023-04-12T19:29:29.789Z,9.80
2023-04-12T19:32:00.737Z,9.80
2023-04-12T19:34:28.742Z,9.80
2023-04-12T19:36:56.650Z,9.80
2023-04-12T19:39:26.818Z,9.70
2023-04-12T19:41:54.671Z,9.70
2023-04-12T19:44:23.301Z,9.70
2023-04-12T19:46:51.727Z,9.70
2023-04-12T19:49:21.996Z,9.70
2023-04-12T19:51:50.745Z,9.70
2023-04-12T19:54:23.279Z,9.70
2023-04-12T19:56:52.645Z,9.70
2023-04-12T19:59:21.026Z,9.60
2023-04-12T20:01:49.106Z,9.60
2023-04-12T20:04:17.539Z,9.60
2023-04-12T20:06:47.124Z,9.60
2023-04-12T20:09:15.345Z,9.70
2023-04-12T20:11:43.426Z,9.70
2023-04-12T20:14:11.573Z,9.60
2023-04-12T20:16:42.555Z,9.60
2023-04-12T20:19:11.112Z,9.70
2023-04-12T20:21:39.362Z,9.70
2023-04-12T20:24:09.290Z,9.70
2023-04-12T20:26:37.477Z,9.70
2023-04-12T20:29:06.871Z,9.70
2023-04-12T20:31:35.020Z,9.70
2023-04-12T20:34:04.045Z,9.70
2023-04-12T20:36:32.792Z,9.70
2023-04-12T20:39:01.642Z,9.80
2023-04-12T20:41:31.083Z,9.80
2023-04-12T20:43:59.467Z,9.80
2023-04-12T20:46:27.549Z,9.90
2023-04-12T20:48:56.423Z,9.90
2023-04-12T20:51:24.949Z,9.80
2023-04-12T20:53:52.899Z,9.60
2023-04-12T20:56:20.829Z,9.20
2023-04-12T20:58:50.160Z,8.70
2023-04-12T21:01:18.629Z,8.50
2023-04-12T21:03:47.737Z,8.30
2023-04-12T21:06:15.878Z,8.10
2023-04-12T21:08:44.472Z,8.00
2023-04-12T21:11:12.374Z,7.90
2023-04-12T21:13:40.689Z,7.90
2023-04-12T21:16:16.102Z,7.80
2023-04-12T21:18:44.699Z,7.70
2023-04-12T21:21:12.803Z,7.70
2023-04-12T21:23:40.969Z,7.70
2023-04-12T21:26:09.050Z,7.70
2023-04-12T21:28:38.380Z,7.70
2023-04-12T21:31:07.066Z,7.70
2023-04-12T21:33:36.763Z,7.70
2023-04-12T21:36:05.813Z,7.70
2023-04-12T21:38:34.055Z,7.70
2023-04-12T21:41:06.495Z,7.70
2023-04-12T21:43:34.456Z,7.80
2023-04-12T21:46:02.416Z,7.70
2023-04-12T21:48:30.573Z,7.70
2023-04-12T21:50:59.911Z,7.80
2023-04-12T21:53:28.453Z,7.70
2023-04-12T21:55:56.501Z,7.70
2023-04-12T21:58:24.409Z,7.70
2023-04-12T22:00:53.467Z,7.70
2023-04-12T22:03:21.454Z,7.70
2023-04-12T22:06:02.991Z,7.80
2023-04-12T22:08:34.116Z,7.80
2023-04-12T22:11:02.365Z,7.80
2023-04-12T22:13:30.733Z,7.80
2023-04-12T22:16:00.649Z,7.80
2023-04-12T22:18:28.585Z,7.80
2023-04-12T22:20:57.797Z,7.80
2023-04-12T22:23:26.232Z,7.80
2023-04-12T22:25:58.598Z,7.80
2023-04-12T22:28:26.581Z,7.80
2023-04-12T22:30:57.290Z,7.80
2023-04-12T22:33:25.287Z,7.80
2023-04-12T22:35:53.206Z,7.80
2023-04-12T22:38:21.353Z,7.80
2023-04-12T22:40:49.363Z,7.70
2023-04-12T22:43:20.832Z,7.70
2023-04-12T22:45:49.485Z,7.70
2023-04-12T22:48:17.378Z,7.70
2023-04-12T22:50:45.663Z,7.70
2023-04-12T22:53:13.961Z,7.70
2023-04-12T22:55:42.248Z,7.70
2023-04-12T22:58:10.207Z,7.70
2023-04-12T23:00:39.836Z,7.70
2023-04-12T23:03:10.836Z,7.70
2023-04-12T23:05:42.313Z,7.70
2023-04-12T23:08:10.238Z,7.60
2023-04-12T23:10:38.166Z,7.60
2023-04-12T23:13:06.970Z,7.60
2023-04-12T23:15:35.831Z,7.60
2023-04-12T23:18:05.795Z,7.60
2023-04-12T23:20:35.676Z,7.60
2023-04-12T23:23:03.754Z,7.50
2023-04-12T23:25:41.850Z,7.50
2023-04-12T23:28:12.951Z,7.40
2023-04-12T23:30:44.206Z,7.40
2023-04-12T23:33:13.917Z,7.30
2023-04-12T23:35:42.465Z,7.30
2023-04-12T23:38:15.398Z,7.30
2023-04-12T23:40:44.378Z,7.20
2023-04-12T23:43:12.329Z,7.20
2023-04-12T23:45:40.340Z,7.20
2023-04-12T23:48:08.765Z,7.10
2023-04-12T23:50:38.978Z,7.10
2023-04-12T23:53:06.961Z,7.00
2023-04-12T23:55:34.854Z,6.90
2023-04-12T23:58:03.147Z,6.90
